createdAt,value
2023-01-17T00:02:51.923Z,95677.28
2023-01-17T00:05:43.132Z,95677.75
2023-01-17T00:16:13.711Z,95687.75
2023-01-17T00:19:04.863Z,95677.66
2023-01-17T00:21:50.571Z,95685.16
2023-01-17T00:24:41.645Z,95684.53
2023-01-17T00:27:15.081Z,95691.84
2023-01-17T00:29:42.084Z,95701.78
2023-01-17T00:34:51.954Z,95703.19
2023-01-17T00:39:58.779Z,95705.78
2023-01-17T00:42:31.262Z,95699.31
2023-01-17T00:48:11.097Z,95716.28
2023-01-17T00:50:59.191Z,95723.16
2023-01-17T00:53:44.982Z,95725.41
2023-01-17T00:56:35.245Z,95734.69
2023-01-17T00:59:26.771Z,95741.91
2023-01-17T01:05:09.736Z,95739.59
2023-01-17T01:07:58.441Z,95747.53
2023-01-17T01:10:49.140Z,95738.75
2023-01-17T01:13:38.125Z,95746.59
2023-01-17T01:16:25.752Z,95739.34
2023-01-17T01:19:12.249Z,95743.16
2023-01-17T01:21:59.812Z,95758.59
2023-01-17T01:24:54.983Z,95760.66
2023-01-17T01:27:49.933Z,95757.91
2023-01-17T01:30:37.063Z,95758.00
2023-01-17T01:35:55.155Z,95755.56
2023-01-17T01:43:52.087Z,95764.66
2023-01-17T01:49:28.525Z,95775.31
2023-01-17T01:52:24.566Z,95771.25
2023-01-17T01:55:04.481Z,95776.53
2023-01-17T01:57:45.727Z,95784.88
2023-01-17T02:00:39.312Z,95781.63
2023-01-17T02:05:47.501Z,95789.91
2023-01-17T02:10:46.916Z,95791.03
2023-01-17T02:16:03.305Z,95790.31
2023-01-17T02:18:51.967Z,95788.22
2023-01-17T02:21:37.780Z,95792.59
2023-01-17T02:24:09.373Z,95788.06
2023-01-17T02:27:07.078Z,95790.47
2023-01-17T02:32:45.974Z,95791.41
2023-01-17T02:35:56.346Z,95792.28
2023-01-17T02:38:37.007Z,95794.94
2023-01-17T02:41:07.991Z,95802.56
2023-01-17T02:43:38.667Z,95796.25
2023-01-17T02:46:11.727Z,95788.06
2023-01-17T02:48:55.504Z,95802.00
2023-01-17T02:55:08.140Z,95797.81
2023-01-17T03:00:59.249Z,95794.03
2023-01-17T03:03:55.369Z,95784.28
2023-01-17T03:06:48.469Z,95789.41
2023-01-17T03:09:25.990Z,95802.38
2023-01-17T03:14:22.744Z,95813.78
2023-01-17T03:16:53.120Z,95819.09
2023-01-17T03:24:43.459Z,95832.19
2023-01-17T03:29:45.238Z,95849.38
2023-01-17T03:34:44.085Z,95844.53
2023-01-17T03:39:40.910Z,95853.81
2023-01-17T03:42:10.844Z,95855.31
2023-01-17T03:44:37.915Z,95858.16
2023-01-17T03:47:07.530Z,95869.25
2023-01-17T03:49:34.572Z,95847.72
2023-01-17T03:52:09.872Z,95864.94
2023-01-17T03:54:41.847Z,95863.66
2023-01-17T03:57:11.085Z,95858.53
2023-01-17T03:59:41.894Z,95863.69
2023-01-17T04:02:13.450Z,95865.50
2023-01-17T04:04:45.483Z,95889.06
2023-01-17T04:09:59.139Z,95870.84
2023-01-17T04:12:41.685Z,95872.09
2023-01-17T04:17:53.332Z,95877.81
2023-01-17T04:20:40.714Z,95876.91
2023-01-17T04:23:10.804Z,95884.84
2023-01-17T04:25:38.361Z,95884.03
2023-01-17T04:30:46.718Z,95884.41
2023-01-17T04:33:28.115Z,95877.84
2023-01-17T04:36:02.444Z,95888.94
2023-01-17T04:38:29.521Z,95901.22
2023-01-17T04:41:03.122Z,95905.47
2023-01-17T04:43:30.297Z,95908.81
2023-01-17T04:46:07.228Z,95909.81
2023-01-17T04:48:37.380Z,95916.06
2023-01-17T04:51:05.990Z,95915.28
2023-01-17T04:53:48.102Z,95921.09
2023-01-17T04:56:22.569Z,95927.03
2023-01-17T04:58:49.635Z,95923.56
2023-01-17T05:01:21.245Z,95931.06
2023-01-17T05:03:55.421Z,95924.16
2023-01-17T05:06:34.369Z,95948.81
2023-01-17T05:09:07.194Z,95943.69
2023-01-17T05:11:46.224Z,95948.81
2023-01-17T05:14:18.434Z,95948.50
2023-01-17T05:16:47.835Z,95952.84
2023-01-17T05:19:22.096Z,95955.50
2023-01-17T05:21:54.312Z,95955.31
2023-01-17T05:24:26.652Z,95963.25
2023-01-17T05:27:06.847Z,95962.09
2023-01-17T05:29:36.616Z,95963.44
2023-01-17T05:32:10.579Z,95952.16
2023-01-17T05:34:41.235Z,95952.81
2023-01-17T05:37:10.361Z,95953.97
2023-01-17T05:39:52.824Z,95950.16
2023-01-17T05:42:25.996Z,95946.13
2023-01-17T05:47:27.718Z,95951.72
2023-01-17T05:50:01.366Z,95945.16
2023-01-17T05:52:44.984Z,95956.66
2023-01-17T05:57:48.396Z,95964.59
2023-01-17T06:00:16.868Z,95969.69
2023-01-17T06:09:35.494Z,95992.53
2023-01-17T06:14:49.111Z,95987.50
2023-01-17T06:17:36.769Z,95984.72
2023-01-17T06:20:08.390Z,95981.03
2023-01-17T06:23:03.939Z,95975.94
2023-01-17T06:25:44.505Z,95978.50
2023-01-17T06:30:44.512Z,95976.25
2023-01-17T06:33:31.612Z,95969.63
2023-01-17T06:36:09.719Z,95978.19
2023-01-17T06:42:44.777Z,95969.19
2023-01-17T06:48:03.269Z,95969.56
2023-01-17T06:50:33.935Z,95978.41
2023-01-17T06:53:07.416Z,95986.63
2023-01-17T06:55:47.112Z,95982.97
2023-01-17T07:00:45.194Z,95990.88
2023-01-17T07:03:27.698Z,95989.13
2023-01-17T07:05:55.525Z,95994.69
2023-01-17T07:08:38.752Z,95994.69
2023-01-17T07:11:31.242Z,95998.47
2023-01-17T07:13:59.468Z,96005.63
2023-01-17T07:16:31.689Z,95996.22
2023-01-17T07:32:40.712Z,96003.22
2023-01-17T09:54:57.851Z,95979.88
2023-01-17T09:57:34.891Z,95975.31
2023-01-17T10:00:29.031Z,95971.16
2023-01-17T10:03:35.476Z,95984.44
2023-01-17T10:06:47.541Z,95982.09
2023-01-17T10:09:40.361Z,95978.88
2023-01-17T10:12:58.262Z,95977.75
2023-01-17T10:16:25.540Z,95981.75
2023-01-17T10:19:36.074Z,95966.44
2023-01-17T10:23:02.258Z,95957.84
2023-01-17T10:25:55.729Z,95954.47
2023-01-17T10:28:54.250Z,95956.69
2023-01-17T10:31:32.208Z,95956.09
2023-01-17T10:34:38.266Z,95950.84
2023-01-17T10:37:41.880Z,95949.03
2023-01-17T10:43:29.085Z,95946.00
2023-01-17T10:46:36.374Z,95949.78
2023-01-17T10:50:07.536Z,95949.88
2023-01-17T10:58:12.386Z,95943.91
2023-01-17T11:02:08.461Z,95940.72
2023-01-17T11:13:53.169Z,95927.81
2023-01-17T11:16:40.971Z,95924.22
2023-01-17T11:19:31.656Z,95910.59
2023-01-17T11:37:29.405Z,95875.53
2023-01-17T11:40:39.619Z,95879.56
2023-01-17T11:55:45.311Z,95857.19
2023-01-17T12:02:41.155Z,95843.94
2023-01-17T12:05:56.412Z,95841.78
2023-01-17T12:13:56.136Z,95838.59
2023-01-17T12:16:56.616Z,95845.28
2023-01-17T12:19:43.568Z,95844.59
2023-01-17T12:22:56.340Z,95845.06
2023-01-17T12:26:34.015Z,95847.34
2023-01-17T12:31:51.214Z,95836.72
2023-01-17T12:35:03.281Z,95843.28
2023-01-17T12:37:37.530Z,95843.72
2023-01-17T13:12:21.285Z,95794.75
2023-01-17T13:18:16.942Z,95809.34
2023-01-17T13:29:19.885Z,95797.16
2023-01-17T13:35:09.483Z,95785.09
2023-01-17T13:37:50.126Z,95780.47
2023-01-17T13:40:50.682Z,95788.03
2023-01-17T13:48:16.451Z,95792.09
2023-01-17T13:50:58.443Z,95782.38
2023-01-17T14:00:52.004Z,95765.84
2023-01-17T14:04:06.943Z,95759.19
2023-01-17T14:07:02.023Z,95754.00
2023-01-17T14:10:12.447Z,95764.00
2023-01-17T14:12:51.417Z,95757.06
2023-01-17T14:15:36.026Z,95741.22
2023-01-17T14:18:10.658Z,95734.94
2023-01-17T14:20:50.127Z,95734.81
2023-01-17T14:23:38.403Z,95732.91
2023-01-17T14:26:37.644Z,95735.63
2023-01-17T14:29:50.199Z,95730.59
2023-01-17T14:33:05.973Z,95721.22
2023-01-17T14:35:57.449Z,95722.69
2023-01-17T14:38:28.860Z,95725.00
2023-01-17T14:41:09.121Z,95718.28
2023-01-17T14:44:21.573Z,95714.34
2023-01-17T14:47:00.334Z,95712.19
2023-01-17T14:49:27.498Z,95704.25
2023-01-17T14:52:02.362Z,95694.94
2023-01-17T14:54:33.692Z,95688.19
2023-01-17T14:58:02.693Z,95691.72
2023-01-17T15:00:42.191Z,95690.47
2023-01-17T15:05:51.965Z,95686.56
2023-01-17T15:12:00.995Z,95692.06
2023-01-17T15:15:01.748Z,95690.16
2023-01-17T15:24:44.598Z,95688.00
2023-01-17T15:27:20.109Z,95689.72
2023-01-17T15:29:47.958Z,95683.97
2023-01-17T15:33:00.523Z,95694.50
2023-01-17T15:35:39.051Z,95695.38
2023-01-17T15:38:07.265Z,95691.47
2023-01-17T15:47:40.808Z,95684.19
2023-01-17T15:50:20.013Z,95693.38
2023-01-17T15:52:53.160Z,95694.66
2023-01-17T15:55:48.674Z,95692.00
2023-01-17T16:00:56.942Z,95686.91
2023-01-17T16:06:35.763Z,95676.56
2023-01-17T16:09:04.809Z,95681.09
2023-01-17T16:12:00.864Z,95681.69
2023-01-17T16:15:19.496Z,95675.25
2023-01-17T16:18:26.063Z,95672.22
2023-01-17T16:21:15.003Z,95674.22
2023-01-17T16:23:47.970Z,95681.38
2023-01-17T16:30:22.341Z,95687.16
2023-01-17T16:32:55.459Z,95687.63
2023-01-17T16:35:44.279Z,95690.03
2023-01-17T16:38:16.166Z,95689.25
2023-01-17T16:40:46.832Z,95681.31
2023-01-17T16:43:28.581Z,95689.78
2023-01-17T16:46:24.504Z,95694.94
2023-01-17T16:48:58.292Z,95694.16
2023-01-17T16:51:43.667Z,95702.13
2023-01-17T16:54:30.695Z,95698.69
2023-01-17T16:57:01.026Z,95703.47
2023-01-17T17:04:07.995Z,95705.19
2023-01-17T17:25:23.128Z,95698.50
2023-01-17T17:28:11.739Z,95694.44
2023-01-17T17:33:21.402Z,95702.41
2023-01-17T17:35:56.601Z,95699.75
2023-01-17T17:42:15.586Z,95698.56
2023-01-17T17:44:55.633Z,95703.91
2023-01-17T17:47:50.321Z,95696.78
2023-01-17T17:50:17.486Z,95694.56
2023-01-17T18:00:00.192Z,95713.66
2023-01-17T18:02:30.070Z,95714.88
2023-01-17T18:04:57.313Z,95718.69
2023-01-17T18:07:27.301Z,95717.00
2023-01-17T18:09:57.242Z,95712.22
2023-01-17T18:12:25.828Z,95714.22
2023-01-17T18:14:52.711Z,95710.22
2023-01-17T18:17:20.405Z,95714.38
2023-01-17T18:19:47.424Z,95714.00
2023-01-17T18:22:18.819Z,95716.16
2023-01-17T18:27:35.519Z,95712.81
2023-01-17T18:30:03.771Z,95722.88
2023-01-17T18:32:42.829Z,95728.19
2023-01-17T18:35:17.436Z,95724.75
2023-01-17T18:40:16.711Z,95721.41
2023-01-17T18:45:13.568Z,95724.63
2023-01-17T18:50:07.346Z,95716.38
2023-01-17T18:55:09.930Z,95707.91
2023-01-17T19:00:07.516Z,95714.25
2023-01-17T19:02:34.676Z,95716.25
2023-01-17T19:05:05.534Z,95713.28
2023-01-17T19:07:35.009Z,95718.88
2023-01-17T19:10:02.173Z,95712.84
2023-01-17T19:12:35.411Z,95714.28
2023-01-17T19:15:02.393Z,95707.06
2023-01-17T19:17:29.284Z,95717.63
2023-01-17T19:20:01.512Z,95719.78
2023-01-17T19:22:28.593Z,95724.66
2023-01-17T19:24:55.623Z,95729.56
2023-01-17T19:27:26.377Z,95734.00
2023-01-17T19:29:53.445Z,95736.59
2023-01-17T19:32:20.370Z,95734.34
2023-01-17T19:34:47.176Z,95737.91
2023-01-17T19:37:14.268Z,95740.50
2023-01-17T19:39:41.158Z,95741.47
2023-01-17T19:42:17.427Z,95740.13
2023-01-17T19:44:46.559Z,95751.19
2023-01-17T19:47:13.406Z,95751.31
2023-01-17T19:49:42.688Z,95754.13
2023-01-17T19:52:18.229Z,95751.44
2023-01-17T19:54:45.115Z,95756.91
2023-01-17T19:57:14.873Z,95758.47
2023-01-17T20:02:09.883Z,95760.25
2023-01-17T20:04:36.787Z,95759.91
2023-01-17T20:07:05.875Z,95753.88
2023-01-17T20:09:42.378Z,95754.00
2023-01-17T20:12:14.780Z,95742.84
2023-01-17T20:14:44.765Z,95738.84
2023-01-17T20:17:13.589Z,95736.94
2023-01-17T20:19:42.547Z,95738.25
2023-01-17T20:22:09.614Z,95743.28
2023-01-17T20:27:05.917Z,95753.34
2023-01-17T20:32:11.439Z,95756.56
2023-01-17T20:34:38.270Z,95758.59
2023-01-17T20:37:05.208Z,95755.13
2023-01-17T20:39:35.596Z,95756.78
2023-01-17T20:42:04.026Z,95750.53
2023-01-17T20:44:36.629Z,95752.84
2023-01-17T20:47:09.920Z,95761.47
2023-01-17T20:49:37.092Z,95762.69
2023-01-17T20:52:06.574Z,95758.78
2023-01-17T20:57:09.710Z,95763.16
2023-01-17T20:59:49.783Z,95766.84
2023-01-17T21:02:17.098Z,95759.69
2023-01-17T21:04:48.051Z,95756.22
2023-01-17T21:07:14.950Z,95760.03
2023-01-17T21:09:43.053Z,95761.81
2023-01-17T21:12:11.232Z,95764.59
2023-01-17T21:17:07.887Z,95765.16
2023-01-17T21:22:07.987Z,95758.56
2023-01-17T21:24:46.576Z,95757.56
2023-01-17T21:27:24.516Z,95758.34
2023-01-17T21:29:57.234Z,95761.25
2023-01-17T21:32:29.192Z,95764.38
2023-01-17T21:34:56.198Z,95757.13
2023-01-17T21:37:23.165Z,95753.34
2023-01-17T21:39:54.783Z,95754.13
2023-01-17T21:42:25.381Z,95751.56
2023-01-17T21:45:06.410Z,95746.09
2023-01-17T21:47:35.911Z,95742.97
2023-01-17T21:50:03.020Z,95744.19
2023-01-17T21:52:31.655Z,95751.31
2023-01-17T21:55:16.876Z,95750.34
2023-01-17T21:58:02.397Z,95750.09
2023-01-17T22:00:32.689Z,95749.44
2023-01-17T22:03:02.298Z,95743.19
2023-01-17T22:05:29.307Z,95741.97
2023-01-17T22:08:20.704Z,95743.97
2023-01-17T22:10:49.462Z,95745.53
2023-01-17T22:13:20.551Z,95744.88
2023-01-17T22:16:01.571Z,95747.44
2023-01-17T22:18:33.260Z,95744.88
2023-01-17T22:23:32.691Z,95752.66
2023-01-17T22:26:05.282Z,95747.22
2023-01-17T22:28:34.896Z,95743.19
2023-01-17T22:33:58.171Z,95746.19
2023-01-17T22:44:05.534Z,95738.41
2023-01-17T22:49:07.708Z,95741.53
2023-01-17T22:54:04.372Z,95733.03
2023-01-17T22:56:35.347Z,95733.16
2023-01-17T22:59:08.071Z,95741.19
2023-01-17T23:01:36.307Z,95731.28
2023-01-17T23:09:11.304Z,95731.59
2023-01-17T23:14:23.911Z,95736.97
2023-01-17T23:17:16.685Z,95729.59
2023-01-17T23:19:44.390Z,95735.28
2023-01-17T23:22:16.452Z,95732.03
2023-01-17T23:24:52.148Z,95733.28
2023-01-17T23:30:16.743Z,95730.16
2023-01-17T23:35:18.295Z,95731.28
2023-01-17T23:38:03.643Z,95733.38
2023-01-17T23:40:34.922Z,95733.50
2023-01-17T23:43:20.891Z,95729.91
2023-01-17T23:45:53.947Z,95725.78
2023-01-17T23:48:24.713Z,95723.66
2023-01-17T23:51:00.626Z,95715.09
2023-01-17T23:53:28.144Z,95723.25
2023-01-17T23:58:27.861Z,95723.91
